Time;durP1;ratioP1;P1;durP2;ratioP2;P2;SDS_P1;SDS_P2;PMS_P1;PMS_P2;Temp;Humidity;BMP_temperature;BMP_pressure;BME280_temperature;BME280_humidity;BME280_pressure;Samples;Min_cycle;Max_cycle;Signal;HPM_P1;HPM_P2
2021/05/27 07:24:47;;;;;;;10.43;4.50;;;14.30;99.90;;;;;;4503006;23;20237;-77
2021/05/27 07:27:13;;;;;;;8.43;4.00;;;14.40;99.90;;;;;;4991495;28;20218;-69
2021/05/27 07:29:40;;;;;;;7.90;3.77;;;14.50;99.90;;;;;;4992685;28;20209;-74
2021/05/27 07:32:07;;;;;;;7.87;3.67;;;14.60;99.90;;;;;;4992532;28;20635;-69
2021/05/27 07:34:34;;;;;;;9.23;3.60;;;14.60;99.90;;;;;;4992799;28;20260;-72
2021/05/27 07:37:00;;;;;;;6.37;3.57;;;14.40;99.90;;;;;;4982803;28;20214;-71
2021/05/27 07:39:27;;;;;;;6.93;3.70;;;14.40;99.90;;;;;;4978041;28;20217;-71
2021/05/27 07:41:54;;;;;;;7.47;4.00;;;14.40;99.90;;;;;;4988461;28;20242;-71
2021/05/27 07:44:20;;;;;;;7.80;3.93;;;14.50;99.90;;;;;;4995293;28;20211;-70
2021/05/27 07:46:47;;;;;;;11.13;4.60;;;14.50;99.90;;;;;;4960346;28;20223;-70
2021/05/27 07:49:13;;;;;;;14.43;4.20;;;14.40;99.90;;;;;;4956857;29;20243;-71
2021/05/27 07:51:39;;;;;;;8.23;3.93;;;14.50;99.90;;;;;;4969643;28;20234;-70
2021/05/27 07:54:06;;;;;;;8.37;4.30;;;14.50;99.90;;;;;;4975672;28;20293;-76
2021/05/27 07:56:32;;;;;;;5.90;4.13;;;14.50;99.90;;;;;;4976016;28;20211;-71
2021/05/27 07:58:59;;;;;;;7.73;4.27;;;14.30;99.90;;;;;;4975296;28;20630;-69
2021/05/27 08:01:26;;;;;;;7.77;4.43;;;14.30;99.90;;;;;;4975077;28;20243;-72
2021/05/27 08:03:52;;;;;;;6.87;4.10;;;14.40;99.90;;;;;;4975699;28;20218;-67
2021/05/27 08:06:19;;;;;;;8.00;4.00;;;14.30;99.90;;;;;;4974737;28;20203;-66
2021/05/27 08:08:45;;;;;;;6.63;3.60;;;14.50;99.90;;;;;;4975389;28;20395;-68
2021/05/27 08:11:11;;;;;;;7.60;4.10;;;14.90;99.90;;;;;;4974656;28;20330;-69
2021/05/27 08:13:38;;;;;;;6.40;3.77;;;15.30;99.90;;;;;;4974650;28;20218;-68
2021/05/27 08:16:06;;;;;;;7.30;3.70;;;15.30;99.90;;;;;;4975072;28;20239;-71
2021/05/27 08:18:32;;;;;;;7.63;4.27;;;15.60;99.90;;;;;;4989133;28;20217;-70
2021/05/27 08:20:58;;;;;;;6.40;3.77;;;15.70;99.90;;;;;;4970884;28;20232;-70
2021/05/27 08:23:25;;;;;;;8.40;3.60;;;15.60;99.90;;;;;;4955951;28;20220;-69
2021/05/27 08:25:51;;;;;;;9.67;4.10;;;15.60;99.90;;;;;;4955596;28;20219;-70
2021/05/27 08:28:17;;;;;;;8.37;4.17;;;15.50;99.90;;;;;;4955716;28;20307;-70
2021/05/27 08:30:44;;;;;;;6.67;4.13;;;15.30;99.90;;;;;;4955628;28;20638;-70
2021/05/27 08:33:11;;;;;;;18.80;9.83;;;15.00;99.90;;;;;;4955412;28;20638;-70
2021/05/27 08:35:37;;;;;;;8.13;5.20;;;14.90;99.90;;;;;;4955596;28;20212;-68
2021/05/27 08:38:04;;;;;;;9.77;4.50;;;15.00;99.90;;;;;;4955237;28;20211;-68
2021/05/27 08:40:30;;;;;;;7.03;4.30;;;15.50;99.90;;;;;;4955482;29;20323;-67
2021/05/27 08:42:58;;;;;;;10.60;4.80;;;16.00;99.90;;;;;;4954506;28;20236;-71
2021/05/27 08:45:29;;;;;;;11.17;4.70;;;16.60;99.90;;;;;;4955595;28;20208;-70
2021/05/27 08:47:56;;;;;;;7.87;4.63;;;17.00;99.90;;;;;;4955134;28;20204;-72
2021/05/27 08:50:30;;;;;;;8.87;4.03;;;17.50;99.90;;;;;;4954191;28;20208;-69
2021/05/27 08:52:56;;;;;;;7.80;4.60;;;17.70;99.90;;;;;;4955290;28;20259;-71
2021/05/27 08:55:22;;;;;;;6.93;4.20;;;18.20;99.90;;;;;;4954991;28;20210;-71
2021/05/27 08:57:49;;;;;;;6.83;4.13;;;18.30;99.90;;;;;;4955098;28;20212;-70
2021/05/27 09:00:17;;;;;;;6.80;3.90;;;18.40;99.90;;;;;;4955067;28;20246;-70
2021/05/27 09:02:54;;;;;;;6.67;3.60;;;18.20;99.90;;;;;;4954787;28;20235;-71
2021/05/27 09:05:20;;;;;;;6.33;4.33;;;18.00;99.90;;;;;;4960209;28;20677;-73
2021/05/27 09:07:48;;;;;;;6.23;4.13;;;18.10;99.90;;;;;;4974415;28;20210;-71
2021/05/27 09:10:15;;;;;;;5.50;3.70;;;17.90;99.90;;;;;;4974357;28;20689;-70
2021/05/27 09:12:41;;;;;;;6.47;4.40;;;18.10;99.90;;;;;;4974144;28;20285;-70
2021/05/27 09:15:21;;;;;;;8.23;4.23;;;18.10;99.90;;;;;;4974004;28;20233;-71
2021/05/27 09:17:49;;;;;;;5.40;3.83;;;18.60;99.90;;;;;;4981897;28;20538;-73
2021/05/27 09:20:23;;;;;;;5.87;4.13;;;18.70;99.90;;;;;;4993415;28;20546;-70
2021/05/27 09:23:08;;;;;;;7.33;4.17;;;18.30;99.90;;;;;;4993214;28;20241;-71
2021/05/27 09:25:36;;;;;;;5.27;3.97;;;17.70;99.90;;;;;;4994616;28;20214;-69
2021/05/27 09:28:03;;;;;;;6.47;3.90;;;17.80;99.90;;;;;;4994638;28;20573;-69
2021/05/27 09:30:30;;;;;;;5.03;3.50;;;18.10;99.90;;;;;;4994745;28;20218;-68
2021/05/27 09:32:56;;;;;;;6.33;3.70;;;18.40;99.90;;;;;;4994473;28;20222;-70
2021/05/27 09:35:23;;;;;;;6.10;4.10;;;18.60;99.90;;;;;;4993717;28;20210;-69
2021/05/27 09:37:52;;;;;;;5.63;4.30;;;18.40;99.90;;;;;;4994266;28;20657;-74
2021/05/27 09:40:30;;;;;;;6.53;4.00;;;18.20;99.90;;;;;;4994640;28;20206;-83
2021/05/27 09:42:57;;;;;;;6.50;4.00;;;17.90;99.90;;;;;;4981676;28;20338;-86
2021/05/27 09:45:24;;;;;;;6.77;3.93;;;17.80;99.90;;;;;;4955728;28;20219;-69
2021/05/27 09:47:51;;;;;;;5.33;3.47;;;17.60;99.90;;;;;;4956000;28;20279;-71
2021/05/27 09:50:17;;;;;;;7.27;3.87;;;17.40;99.90;;;;;;4955705;28;20223;-72
2021/05/27 09:52:46;;;;;;;6.20;3.83;;;17.20;99.90;;;;;;4955796;29;20354;-73
2021/05/27 09:55:14;;;;;;;5.50;3.90;;;16.80;99.90;;;;;;4955494;29;20219;-72
2021/05/27 09:57:42;;;;;;;5.60;3.60;;;16.60;99.90;;;;;;4955561;28;20262;-71
2021/05/27 10:00:26;;;;;;;4.80;3.00;;;16.50;99.90;;;;;;4955347;29;20687;-72
2021/05/27 10:02:53;;;;;;;6.23;3.70;;;16.40;99.90;;;;;;4954641;28;20326;-72
2021/05/27 10:05:20;;;;;;;6.27;3.70;;;16.20;99.90;;;;;;4955347;28;20239;-72
2021/05/27 10:07:49;;;;;;;5.03;3.70;;;15.90;99.90;;;;;;4954906;28;20212;-71
2021/05/27 10:10:18;;;;;;;9.60;3.57;;;15.60;99.90;;;;;;4957869;28;20294;-72
2021/05/27 10:12:46;;;;;;;5.80;3.47;;;15.40;99.90;;;;;;4974356;28;20656;-72
2021/05/27 10:15:15;;;;;;;7.07;3.60;;;15.50;99.90;;;;;;4974785;28;20231;-72
2021/05/27 10:17:42;;;;;;;7.60;3.77;;;15.50;99.90;;;;;;4981485;28;20294;-72
2021/05/27 10:20:10;;;;;;;5.70;3.80;;;15.30;99.90;;;;;;4993903;28;20293;-71
2021/05/27 10:22:36;;;;;;;5.43;3.67;;;15.40;99.90;;;;;;4993640;28;20328;-71
2021/05/27 10:25:06;;;;;;;5.77;3.73;;;15.20;99.90;;;;;;4993413;28;20300;-71
2021/05/27 10:27:34;;;;;;;5.33;3.90;;;15.20;99.90;;;;;;4978442;28;20220;-69
2021/05/27 10:30:02;;;;;;;7.50;4.20;;;15.40;99.90;;;;;;4954545;29;20227;-69
2021/05/27 10:32:30;;;;;;;7.40;3.53;;;15.60;99.90;;;;;;4955059;29;20311;-69
2021/05/27 10:34:56;;;;;;;6.73;3.23;;;15.90;99.90;;;;;;4955176;28;20299;-69
2021/05/27 10:37:49;;;;;;;3.93;2.63;;;16.20;99.90;;;;;;4954444;29;20299;-69
2021/05/27 10:40:35;;;;;;;4.73;3.07;;;16.60;99.90;;;;;;4950300;28;20301;-69
2021/05/27 10:43:09;;;;;;;5.50;2.90;;;16.70;99.90;;;;;;4954843;28;20235;-69
2021/05/27 10:45:56;;;;;;;5.87;3.03;;;16.90;99.90;;;;;;4954555;28;20250;-69
2021/05/27 10:48:26;;;;;;;3.27;2.13;;;16.80;99.90;;;;;;4954254;29;20254;-69
2021/05/27 10:51:08;;;;;;;5.97;2.50;;;17.00;99.90;;;;;;4954880;28;20244;-69
2021/05/27 10:53:52;;;;;;;4.97;2.33;;;16.80;99.90;;;;;;4955015;29;20212;-69
2021/05/27 10:56:21;;;;;;;6.20;2.70;;;16.70;99.90;;;;;;4954502;29;20329;-68
2021/05/27 10:59:16;;;;;;;3.23;2.20;;;17.00;99.90;;;;;;4954768;29;20212;-67
2021/05/27 11:02:07;;;;;;;5.07;2.60;;;17.30;99.90;;;;;;4954619;28;20649;-68
2021/05/27 11:04:41;;;;;;;5.13;2.80;;;17.30;99.90;;;;;;4954206;28;20655;-67
2021/05/27 11:07:13;;;;;;;3.53;2.27;;;17.30;99.90;;;;;;4963888;28;20210;-67
2021/05/27 11:09:39;;;;;;;4.37;2.70;;;17.30;99.90;;;;;;4974110;28;20214;-67
2021/05/27 11:12:21;;;;;;;4.10;2.37;;;17.30;99.90;;;;;;4973459;28;20362;-67
2021/05/27 11:15:21;;;;;;;3.63;2.30;;;17.20;99.90;;;;;;4977671;28;20302;-67
2021/05/27 11:18:07;;;;;;;4.57;2.33;;;17.10;99.90;;;;;;4985332;28;20297;-67
2021/05/27 11:20:35;;;;;;;5.57;2.27;;;17.20;99.90;;;;;;4997570;28;20206;-67
2021/05/27 11:23:16;;;;;;;3.50;2.03;;;17.30;99.90;;;;;;4997147;28;20330;-67
2021/05/27 11:25:43;;;;;;;2.53;1.70;;;17.50;99.90;;;;;;4996532;28;20218;-67
2021/05/27 11:28:26;;;;;;;2.87;2.00;;;17.70;99.90;;;;;;4996913;28;20298;-67
2021/05/27 11:30:56;;;;;;;2.97;2.00;;;17.80;99.90;;;;;;4996924;28;20257;-67
2021/05/27 11:33:39;;;;;;;3.40;1.90;;;18.00;99.90;;;;;;4988748;28;20214;-67
2021/05/27 11:36:18;;;;;;;3.20;1.80;;;18.10;99.90;;;;;;4958093;29;20259;-67
2021/05/27 11:38:45;;;;;;;2.73;2.00;;;18.10;99.90;;;;;;4958178;28;20207;-68
2021/05/27 11:41:14;;;;;;;2.50;1.57;;;17.90;99.90;;;;;;4957728;29;20263;-67
2021/05/27 11:43:42;;;;;;;3.50;1.93;;;17.80;99.90;;;;;;4957048;29;20228;-68
2021/05/27 11:46:14;;;;;;;2.87;2.07;;;17.90;99.90;;;;;;4957922;29;20306;-68
2021/05/27 11:48:46;;;;;;;2.07;1.70;;;18.00;99.90;;;;;;4957040;29;20299;-68
2021/05/27 11:51:15;;;;;;;3.17;1.80;;;17.80;99.90;;;;;;4956871;28;20228;-68
2021/05/27 11:53:46;;;;;;;2.80;1.93;;;17.70;99.90;;;;;;4957381;28;20667;-68
2021/05/27 11:56:13;;;;;;;2.63;1.73;;;17.50;99.90;;;;;;4956973;29;20254;-68
2021/05/27 11:58:41;;;;;;;3.27;1.87;;;17.40;99.90;;;;;;4957809;28;20710;-67
2021/05/27 12:01:19;;;;;;;2.40;1.73;;;17.70;99.90;;;;;;4972140;28;20630;-67
2021/05/27 12:04:14;;;;;;;3.20;1.53;;;17.80;99.90;;;;;;4977123;28;20265;-68
2021/05/27 12:06:50;;;;;;;3.43;1.77;;;17.90;99.90;;;;;;4931818;28;20242;-68
2021/05/27 12:09:29;;;;;;;3.73;2.10;;;17.80;99.90;;;;;;4976831;28;20290;-69
2021/05/27 12:11:57;;;;;;;3.30;2.07;;;17.60;99.90;;;;;;4976816;28;20269;-68
2021/05/27 12:14:23;;;;;;;3.57;2.10;;;17.70;99.90;;;;;;4976677;28;20273;-67
2021/05/27 12:16:53;;;;;;;3.60;2.00;;;17.80;99.90;;;;;;4976526;28;20311;-67
2021/05/27 12:19:20;;;;;;;3.83;2.03;;;17.90;99.90;;;;;;4956879;28;20568;-66
2021/05/27 12:21:56;;;;;;;4.33;2.23;;;18.00;99.90;;;;;;4956887;28;20273;-66
2021/05/27 12:24:27;;;;;;;6.70;1.60;;;18.20;99.90;;;;;;4956318;28;20311;-67
2021/05/27 12:26:54;;;;;;;5.33;1.80;;;18.20;99.90;;;;;;4961498;28;20294;-68
2021/05/27 12:29:20;;;;;;;2.90;2.00;;;18.20;99.90;;;;;;4976458;28;20225;-69
2021/05/27 12:31:47;;;;;;;3.30;1.70;;;18.30;99.90;;;;;;4976322;28;20237;-69
2021/05/27 12:34:16;;;;;;;6.43;2.20;;;18.30;99.90;;;;;;4976154;28;20211;-68
2021/05/27 12:36:53;;;;;;;2.40;1.73;;;18.10;99.90;;;;;;4976486;28;20208;-68
2021/05/27 12:39:29;;;;;;;4.30;1.87;;;17.90;99.90;;;;;;4976115;28;20207;-69
2021/05/27 12:41:55;;;;;;;2.83;1.83;;;17.80;99.90;;;;;;4975341;28;20684;-68
2021/05/27 12:44:41;;;;;;;4.03;2.10;;;17.80;99.90;;;;;;4976187;28;20212;-68
2021/05/27 12:47:15;;;;;;;4.83;1.80;;;17.60;99.90;;;;;;4976271;28;20211;-68
2021/05/27 12:49:42;;;;;;;2.70;1.67;;;17.50;99.90;;;;;;4975764;28;20298;-68
2021/05/27 12:52:09;;;;;;;2.53;1.50;;;17.30;99.90;;;;;;4975807;28;20235;-68
2021/05/27 12:54:35;;;;;;;5.23;1.60;;;17.40;99.90;;;;;;4975011;28;20213;-68
2021/05/27 12:57:04;;;;;;;2.03;1.40;;;17.50;99.90;;;;;;4975919;28;20234;-69
2021/05/27 12:59:31;;;;;;;3.00;1.43;;;17.70;99.90;;;;;;4976043;28;20263;-68
2021/05/27 13:01:58;;;;;;;3.53;1.07;;;17.80;99.90;;;;;;4975961;28;20238;-68
2021/05/27 13:04:31;;;;;;;1.53;0.80;;;17.70;99.90;;;;;;4975845;28;20207;-68
2021/05/27 13:07:09;;;;;;;2.00;0.93;;;17.70;99.90;;;;;;4975685;28;20682;-68
2021/05/27 13:09:47;;;;;;;1.73;0.60;;;17.80;99.90;;;;;;4975579;28;20725;-68
2021/05/27 13:12:16;;;;;;;0.90;0.70;;;17.80;99.90;;;;;;4975749;28;20317;-68
2021/05/27 13:14:44;;;;;;;2.10;0.70;;;17.60;99.90;;;;;;4975703;28;20302;-68
2021/05/27 13:17:13;;;;;;;0.90;0.70;;;17.20;99.90;;;;;;4978048;28;20297;-68
2021/05/27 13:19:42;;;;;;;2.27;0.70;;;16.90;99.90;;;;;;4994866;28;20213;-68
2021/05/27 13:22:20;;;;;;;1.67;0.90;;;17.10;99.90;;;;;;4974440;28;20244;-68
2021/05/27 13:24:59;;;;;;;2.23;1.20;;;17.40;99.90;;;;;;4956218;29;20216;-68
2021/05/27 13:27:31;;;;;;;2.20;1.30;;;17.60;99.90;;;;;;4956313;29;20208;-68
2021/05/27 13:30:00;;;;;;;3.33;1.30;;;17.70;99.90;;;;;;4956121;29;20208;-68
2021/05/27 13:32:28;;;;;;;1.63;1.23;;;17.80;99.90;;;;;;4955803;28;20228;-68
2021/05/27 13:34:58;;;;;;;3.00;1.27;;;17.80;99.90;;;;;;4955611;28;20303;-69
2021/05/27 13:37:28;;;;;;;2.97;1.90;;;18.00;99.90;;;;;;4956189;28;20303;-68
2021/05/27 13:39:55;;;;;;;3.00;1.77;;;18.20;99.90;;;;;;4955978;28;20207;-68
2021/05/27 13:42:21;;;;;;;2.93;1.80;;;18.20;99.90;;;;;;4955558;28;20243;-68
2021/05/27 13:44:48;;;;;;;4.40;1.60;;;18.20;99.90;;;;;;4955815;29;20212;-68
2021/05/27 13:47:17;;;;;;;2.47;1.67;;;18.10;99.90;;;;;;4955888;29;20208;-68
2021/05/27 13:49:43;;;;;;;3.00;1.50;;;18.00;99.90;;;;;;4955800;28;20215;-68
2021/05/27 13:52:09;;;;;;;2.20;1.50;;;17.70;99.90;;;;;;4955772;28;20236;-68
2021/05/27 13:54:37;;;;;;;3.57;1.53;;;17.40;99.90;;;;;;4955939;28;20239;-68
2021/05/27 13:57:05;;;;;;;7.03;2.83;;;17.50;99.90;;;;;;4955154;28;20219;-68
2021/05/27 13:59:31;;;;;;;3.27;1.90;;;17.50;99.90;;;;;;4955278;28;20683;-69
2021/05/27 14:01:58;;;;;;;4.03;2.00;;;17.80;99.90;;;;;;4954969;29;20613;-69
2021/05/27 14:04:26;;;;;;;2.00;1.50;;;18.00;99.90;;;;;;4955468;28;20208;-69
2021/05/27 14:06:52;;;;;;;4.03;1.60;;;18.00;99.90;;;;;;4955395;28;20208;-69
2021/05/27 14:09:20;;;;;;;3.10;1.40;;;17.80;99.90;;;;;;4955221;28;20620;-69
2021/05/27 14:11:47;;;;;;;4.73;1.50;;;17.60;99.90;;;;;;4955111;29;20235;-69
2021/05/27 14:14:14;;;;;;;1.47;1.20;;;17.70;99.90;;;;;;4955028;29;20242;-69
2021/05/27 14:16:40;;;;;;;2.90;1.57;;;17.70;99.90;;;;;;4969748;28;20207;-68
2021/05/27 14:19:07;;;;;;;2.83;1.43;;;17.60;99.90;;;;;;4991476;28;20214;-70
2021/05/27 14:21:34;;;;;;;3.07;1.87;;;17.60;99.90;;;;;;4992999;28;20233;-71
2021/05/27 14:24:00;;;;;;;3.43;1.97;;;17.50;99.90;;;;;;4992599;28;20228;-71
2021/05/27 14:26:27;;;;;;;3.07;1.83;;;17.20;99.90;;;;;;4985692;28;20212;-69
2021/05/27 14:28:54;;;;;;;5.03;2.03;;;17.00;99.90;;;;;;4953546;28;20222;-70
2021/05/27 14:31:20;;;;;;;2.40;1.60;;;16.70;99.90;;;;;;4953498;28;20350;-71
2021/05/27 14:33:47;;;;;;;2.30;1.57;;;16.80;99.90;;;;;;4955009;28;20216;-69
2021/05/27 14:36:14;;;;;;;2.37;1.47;;;16.80;99.90;;;;;;4954168;28;20212;-71
2021/05/27 14:38:40;;;;;;;2.40;1.50;;;16.80;99.90;;;;;;4954115;28;20628;-71
2021/05/27 14:41:09;;;;;;;2.37;1.40;;;16.90;99.90;;;;;;4953427;28;20235;-70
2021/05/27 14:43:35;;;;;;;3.43;1.50;;;17.10;99.90;;;;;;4954281;28;20267;-69
2021/05/27 14:46:03;;;;;;;3.47;1.40;;;17.30;99.90;;;;;;4954612;28;20211;-69
2021/05/27 14:48:30;;;;;;;2.73;1.40;;;17.30;99.90;;;;;;4954265;28;20540;-68
2021/05/27 14:50:56;;;;;;;3.80;1.23;;;17.40;99.90;;;;;;4954554;28;20711;-67
2021/05/27 14:53:22;;;;;;;1.47;1.20;;;17.20;99.90;;;;;;4954717;28;20220;-67
2021/05/27 14:55:51;;;;;;;3.60;1.60;;;17.20;99.90;;;;;;4954660;29;20204;-70
2021/05/27 14:58:18;;;;;;;3.90;1.83;;;17.30;99.90;;;;;;4954277;28;20212;-70
2021/05/27 15:00:44;;;;;;;3.33;1.43;;;17.40;99.90;;;;;;4954555;28;20208;-70
2021/05/27 15:03:11;;;;;;;3.30;1.57;;;17.60;99.90;;;;;;4954309;28;20598;-69
2021/05/27 15:05:38;;;;;;;2.93;1.80;;;17.70;99.90;;;;;;4954315;28;20215;-69
2021/05/27 15:08:04;;;;;;;5.57;2.60;;;17.60;99.90;;;;;;4954552;29;20212;-69
2021/05/27 15:10:31;;;;;;;3.13;2.10;;;17.50;99.90;;;;;;4954714;29;20208;-69
2021/05/27 15:12:57;;;;;;;4.13;1.60;;;17.30;99.90;;;;;;4954526;29;20560;-69
2021/05/27 15:15:23;;;;;;;3.90;1.53;;;17.20;99.90;;;;;;4954176;28;20559;-69
2021/05/27 15:17:51;;;;;;;3.37;1.77;;;17.20;99.90;;;;;;4954609;29;20214;-70
2021/05/27 15:20:19;;;;;;;2.90;1.30;;;17.20;99.90;;;;;;4954588;28;20746;-69
2021/05/27 15:22:46;;;;;;;4.60;1.63;;;17.10;99.90;;;;;;4954425;29;20245;-69
2021/05/27 15:25:13;;;;;;;2.17;1.50;;;17.00;99.90;;;;;;4954092;28;20238;-69
2021/05/27 15:27:39;;;;;;;2.40;1.50;;;16.80;99.90;;;;;;4954349;28;20679;-70
2021/05/27 15:30:08;;;;;;;3.17;1.70;;;16.70;99.90;;;;;;4954332;28;20212;-70
2021/05/27 15:32:35;;;;;;;3.67;1.83;;;16.60;99.90;;;;;;4954559;28;20232;-70
2021/05/27 15:35:02;;;;;;;2.27;1.73;;;16.60;99.90;;;;;;4954531;28;20725;-70
2021/05/27 15:37:29;;;;;;;2.33;1.90;;;16.80;99.90;;;;;;4954300;28;20664;-70
2021/05/27 15:39:57;;;;;;;5.83;2.50;;;17.00;99.90;;;;;;4954099;29;20307;-71
2021/05/27 15:42:26;;;;;;;6.40;2.20;;;17.00;99.90;;;;;;4954013;28;20267;-70
2021/05/27 15:44:52;;;;;;;1.80;1.43;;;16.80;99.90;;;;;;4954248;28;20232;-68
2021/05/27 15:47:18;;;;;;;2.17;1.20;;;16.70;99.90;;;;;;4954372;29;20204;-69
2021/05/27 15:49:45;;;;;;;3.00;1.20;;;16.40;99.90;;;;;;4954430;28;20218;-69
2021/05/27 15:52:11;;;;;;;5.57;1.40;;;16.30;99.90;;;;;;4954386;28;20250;-72
2021/05/27 15:54:39;;;;;;;2.50;0.90;;;16.40;99.90;;;;;;4954304;29;20215;-71
2021/05/27 15:57:06;;;;;;;2.53;0.97;;;16.30;99.90;;;;;;4953840;28;20739;-71
2021/05/27 15:59:32;;;;;;;2.67;1.30;;;16.30;99.90;;;;;;4952799;28;20630;-71
2021/05/27 16:01:59;;;;;;;3.37;1.30;;;16.30;99.90;;;;;;4972420;28;20327;-69
2021/05/27 16:04:27;;;;;;;3.33;1.50;;;16.20;99.90;;;;;;4957543;28;20204;-71
2021/05/27 16:06:53;;;;;;;2.87;1.10;;;16.10;99.90;;;;;;4978186;28;20210;-70
2021/05/27 16:09:20;;;;;;;2.43;1.30;;;16.00;99.90;;;;;;4996541;28;20224;-70
2021/05/27 16:11:47;;;;;;;3.53;1.40;;;16.10;99.90;;;;;;4977093;28;20219;-69
2021/05/27 16:14:14;;;;;;;3.80;1.70;;;16.00;99.90;;;;;;4976919;28;20230;-69
2021/05/27 16:16:40;;;;;;;3.47;1.80;;;16.00;99.90;;;;;;4976698;28;20213;-69
2021/05/27 16:19:07;;;;;;;2.07;1.53;;;16.10;99.90;;;;;;4987278;28;20207;-69
2021/05/27 16:21:33;;;;;;;1.87;1.40;;;16.20;99.90;;;;;;4978766;28;20231;-70
2021/05/27 16:23:59;;;;;;;4.53;1.20;;;16.10;99.90;;;;;;4976698;28;20602;-70
2021/05/27 16:26:26;;;;;;;2.53;1.00;;;16.10;99.90;;;;;;4976061;28;20686;-70
2021/05/27 16:28:53;;;;;;;1.67;1.13;;;16.00;99.90;;;;;;4976415;28;20215;-68
2021/05/27 16:31:19;;;;;;;3.33;1.27;;;15.90;99.90;;;;;;4960141;28;20271;-70
2021/05/27 16:33:47;;;;;;;4.37;1.67;;;15.90;99.90;;;;;;4956885;28;20212;-70
2021/05/27 16:38:58;;;;;;;3.53;1.30;;;16.10;99.90;;;;;;4956636;28;20267;-71
2021/05/27 16:41:25;;;;;;;1.80;1.00;;;16.40;99.90;;;;;;4956584;28;20224;-71
2021/05/27 16:43:51;;;;;;;3.10;1.10;;;16.50;99.90;;;;;;4956714;28;20286;-69
2021/05/27 16:46:22;;;;;;;3.93;1.07;;;16.40;99.90;;;;;;4956682;29;20701;-71
2021/05/27 16:48:48;;;;;;;1.40;0.97;;;16.30;99.90;;;;;;4956799;28;20208;-71
2021/05/27 16:51:15;;;;;;;3.23;1.23;;;16.20;99.90;;;;;;4956021;28;20631;-70
2021/05/27 16:53:41;;;;;;;2.57;1.30;;;16.00;99.90;;;;;;4957219;28;20208;-70
2021/05/27 16:56:08;;;;;;;2.83;1.33;;;16.00;99.90;;;;;;4986407;28;20293;-70
2021/05/27 16:58:36;;;;;;;5.00;1.53;;;16.00;99.90;;;;;;4978371;28;20642;-70
2021/05/27 17:01:03;;;;;;;6.33;1.50;;;15.90;99.90;;;;;;4962585;28;20593;-70
2021/05/27 17:03:30;;;;;;;4.33;1.40;;;16.00;99.90;;;;;;4956863;28;20595;-70
2021/05/27 17:05:57;;;;;;;4.77;1.60;;;15.90;99.90;;;;;;4956766;29;20204;-71
2021/05/27 17:08:23;;;;;;;3.70;1.53;;;15.90;99.90;;;;;;4956614;28;20208;-70
2021/05/27 17:10:49;;;;;;;4.07;1.60;;;15.80;99.90;;;;;;4956508;28;20235;-70
2021/05/27 17:13:16;;;;;;;3.13;1.50;;;15.70;99.90;;;;;;4956257;28;20549;-71
2021/05/27 17:15:43;;;;;;;4.50;1.40;;;15.60;99.90;;;;;;4956012;28;20239;-71
2021/05/27 17:18:09;;;;;;;6.53;1.70;;;15.50;99.90;;;;;;4956509;28;20259;-71
2021/05/27 17:20:38;;;;;;;2.57;1.50;;;15.40;99.90;;;;;;4956733;28;20208;-70
2021/05/27 17:23:05;;;;;;;4.47;1.73;;;15.40;99.90;;;;;;4956088;28;20236;-71
2021/05/27 17:25:32;;;;;;;2.57;1.40;;;15.50;99.90;;;;;;4955986;28;20623;-70
2021/05/27 17:27:58;;;;;;;6.63;1.67;;;15.50;99.90;;;;;;4956726;28;20211;-70
2021/05/27 17:30:25;;;;;;;2.83;1.43;;;15.50;99.90;;;;;;4956517;28;20291;-70
2021/05/27 17:32:52;;;;;;;4.90;2.30;;;15.50;99.90;;;;;;4956079;28;20231;-70
2021/05/27 17:35:19;;;;;;;2.97;1.90;;;15.50;99.90;;;;;;4956541;28;20212;-71
2021/05/27 17:37:46;;;;;;;2.20;1.37;;;15.40;99.90;;;;;;4956191;28;20212;-70
2021/05/27 17:40:15;;;;;;;5.57;1.70;;;15.40;99.90;;;;;;4955705;28;20212;-70
2021/05/27 17:42:42;;;;;;;3.13;1.60;;;15.40;99.90;;;;;;4955739;28;20243;-70
2021/05/27 17:45:09;;;;;;;3.23;1.40;;;15.30;99.90;;;;;;4955716;28;20294;-70
2021/05/27 17:47:38;;;;;;;3.57;1.60;;;15.30;99.90;;;;;;4955576;29;20686;-70
2021/05/27 17:50:06;;;;;;;4.47;1.60;;;15.20;99.90;;;;;;4955529;28;20212;-70
2021/05/27 17:52:32;;;;;;;3.83;1.60;;;15.00;99.90;;;;;;4956387;28;20224;-70
2021/05/27 17:55:00;;;;;;;4.90;1.60;;;15.00;99.90;;;;;;4967386;28;20281;-70
2021/05/27 17:57:27;;;;;;;3.10;1.70;;;15.10;99.90;;;;;;4994531;28;20206;-70
2021/05/27 17:59:53;;;;;;;5.17;1.73;;;15.10;99.90;;;;;;4990176;28;20663;-70
2021/05/27 18:02:19;;;;;;;4.47;2.00;;;15.00;99.90;;;;;;4974810;28;20643;-70
2021/05/27 18:04:46;;;;;;;3.43;1.70;;;15.00;99.90;;;;;;4974864;28;20207;-70
2021/05/27 18:07:12;;;;;;;3.23;1.70;;;15.20;99.90;;;;;;4974738;28;20671;-70
2021/05/27 18:09:39;;;;;;;4.23;1.60;;;15.30;99.90;;;;;;4972324;28;20215;-69
2021/05/27 18:12:06;;;;;;;5.27;1.50;;;15.30;99.90;;;;;;4955120;28;20777;-70
2021/05/27 18:14:35;;;;;;;3.67;1.30;;;15.20;99.90;;;;;;4954846;28;20211;-71
2021/05/27 18:17:01;;;;;;;3.07;1.30;;;15.20;99.90;;;;;;4955291;28;20215;-71
2021/05/27 18:19:28;;;;;;;4.33;1.20;;;15.10;99.90;;;;;;4955238;28;20303;-70
2021/05/27 18:21:54;;;;;;;2.47;1.40;;;14.90;99.90;;;;;;4954690;28;20228;-70
2021/05/27 18:24:20;;;;;;;3.57;1.13;;;14.80;99.90;;;;;;4954693;28;20291;-70
2021/05/27 18:26:47;;;;;;;2.57;1.33;;;14.80;99.90;;;;;;4960712;28;20203;-72
2021/05/27 18:29:14;;;;;;;3.80;1.60;;;14.70;99.90;;;;;;4974938;28;20211;-72
2021/05/27 18:31:41;;;;;;;7.33;1.40;;;14.70;99.90;;;;;;4974469;28;20744;-72
2021/05/27 18:34:08;;;;;;;3.00;1.10;;;14.70;99.90;;;;;;4955188;28;20259;-71
2021/05/27 18:36:35;;;;;;;3.27;1.10;;;14.50;99.90;;;;;;4954910;28;20208;-70
2021/05/27 18:39:02;;;;;;;5.33;1.00;;;14.50;99.90;;;;;;4954699;28;20274;-71
2021/05/27 18:41:28;;;;;;;1.67;1.00;;;14.50;99.90;;;;;;4954851;28;20228;-70
2021/05/27 18:43:55;;;;;;;3.90;1.10;;;14.50;99.90;;;;;;4955753;28;20239;-69
2021/05/27 18:46:22;;;;;;;4.10;1.13;;;14.50;99.90;;;;;;4987447;28;20209;-69
2021/05/27 18:48:50;;;;;;;2.27;0.90;;;14.40;99.90;;;;;;4973741;28;20362;-71
2021/05/27 18:51:16;;;;;;;1.00;0.80;;;14.50;99.90;;;;;;4973592;28;20701;-70
2021/05/27 18:53:44;;;;;;;1.40;0.80;;;14.50;99.90;;;;;;4974292;28;20317;-70
2021/05/27 18:56:10;;;;;;;3.17;1.70;;;14.50;99.90;;;;;;4968666;28;20208;-69
2021/05/27 18:58:36;;;;;;;2.17;0.80;;;14.40;99.90;;;;;;4954518;28;20204;-70
2021/05/27 19:01:03;;;;;;;2.03;0.87;;;14.30;99.90;;;;;;4954440;28;20234;-69
2021/05/27 19:03:30;;;;;;;3.83;1.10;;;14.20;99.90;;;;;;4954245;29;20240;-70
2021/05/27 19:05:57;;;;;;;3.77;1.00;;;14.20;99.90;;;;;;4954547;28;20216;-70
2021/05/27 19:08:23;;;;;;;4.37;1.30;;;14.10;99.90;;;;;;4954772;28;20207;-70
2021/05/27 19:10:51;;;;;;;5.77;1.40;;;14.20;99.90;;;;;;4954446;28;20216;-70
2021/05/27 19:13:18;;;;;;;3.37;1.10;;;14.20;99.90;;;;;;4954887;29;20212;-70
2021/05/27 19:15:44;;;;;;;5.73;1.33;;;14.10;99.90;;;;;;4954711;29;20673;-70
2021/05/27 19:18:10;;;;;;;4.60;1.33;;;14.00;99.90;;;;;;4954566;29;20222;-70
2021/05/27 19:20:38;;;;;;;1.90;1.20;;;13.70;99.90;;;;;;4954482;29;20660;-70
2021/05/27 19:23:05;;;;;;;4.47;1.40;;;13.60;99.90;;;;;;4954692;29;20228;-70
2021/05/27 19:25:31;;;;;;;2.70;1.30;;;13.50;99.90;;;;;;4955350;28;20208;-70
2021/05/27 19:27:59;;;;;;;4.10;1.00;;;13.50;99.90;;;;;;4954473;28;20208;-70
2021/05/27 19:30:26;;;;;;;4.13;1.00;;;13.50;99.90;;;;;;4954483;29;20698;-70
2021/05/27 19:32:53;;;;;;;3.33;1.07;;;13.50;99.90;;;;;;4954357;29;20231;-71
2021/05/27 19:35:20;;;;;;;2.07;1.10;;;13.50;99.90;;;;;;4957842;28;20299;-70
2021/05/27 19:37:47;;;;;;;1.87;0.97;;;13.30;99.90;;;;;;4958137;28;20204;-70
2021/05/27 19:40:16;;;;;;;2.23;0.90;;;13.30;99.90;;;;;;4958065;29;20218;-70
2021/05/27 19:42:43;;;;;;;3.60;1.00;;;13.20;99.90;;;;;;4958021;28;20247;-70
2021/05/27 19:45:11;;;;;;;3.50;1.17;;;13.10;99.90;;;;;;4958277;28;20212;-70
2021/05/27 19:47:39;;;;;;;2.47;1.07;;;13.10;99.90;;;;;;4958003;28;20302;-70
2021/05/27 19:50:07;;;;;;;3.10;1.20;;;13.00;99.90;;;;;;4957984;28;20572;-70
2021/05/27 19:52:34;;;;;;;3.43;1.20;;;12.90;99.90;;;;;;4957937;29;20232;-69
2021/05/27 19:55:01;;;;;;;2.70;1.57;;;12.70;99.90;;;;;;4958190;28;20311;-69
2021/05/27 19:57:30;;;;;;;3.30;1.87;;;12.70;99.90;;;;;;4958194;29;20215;-70
2021/05/27 19:59:57;;;;;;;6.67;1.77;;;12.70;99.90;;;;;;4957990;28;20216;-71
2021/05/27 20:02:24;;;;;;;1.90;1.10;;;12.60;99.90;;;;;;4957583;28;20240;-70
2021/05/27 20:04:51;;;;;;;1.63;1.20;;;12.60;99.90;;;;;;4957893;28;20294;-70
2021/05/27 20:07:18;;;;;;;1.13;0.80;;;12.60;99.90;;;;;;4957875;28;20663;-71
2021/05/27 20:09:44;;;;;;;3.90;1.10;;;12.60;99.90;;;;;;4957853;29;20215;-69
2021/05/27 20:12:12;;;;;;;4.20;1.03;;;12.60;99.90;;;;;;4957582;28;20228;-69
2021/05/27 20:14:38;;;;;;;3.93;1.03;;;12.70;99.90;;;;;;4957598;29;20671;-71
2021/05/27 20:17:04;;;;;;;2.87;1.10;;;12.60;99.90;;;;;;4957584;28;20215;-70
2021/05/27 20:19:31;;;;;;;2.87;1.40;;;12.60;99.90;;;;;;4957477;28;20299;-69